sensor_id;sensor_type;location;lat;lon;timestamp;temperature;humidity
23251;DHT22;11794;49.730;10.088;2023-04-23T00:00:04;13.50;99.90
23251;DHT22;11794;49.730;10.088;2023-04-23T00:02:32;13.40;99.90
23251;DHT22;11794;49.730;10.088;2023-04-23T00:05:02;13.40;99.90
23251;DHT22;11794;49.730;10.088;2023-04-23T00:07:31;13.40;99.90
23251;DHT22;11794;49.730;10.088;2023-04-23T00:09:59;13.30;99.90
23251;DHT22;11794;49.730;10.088;2023-04-23T00:12:26;13.20;99.90
23251;DHT22;11794;49.730;10.088;2023-04-23T00:14:52;13.20;99.90
23251;DHT22;11794;49.730;10.088;2023-04-23T00:17:17;13.20;99.90
23251;DHT22;11794;49.730;10.088;2023-04-23T00:19:44;13.10;99.90
23251;DHT22;11794;49.730;10.088;2023-04-23T00:22:10;13.10;99.90
23251;DHT22;11794;49.730;10.088;2023-04-23T00:24:36;13.00;99.90
23251;DHT22;11794;49.730;10.088;2023-04-23T00:27:03;13.00;99.90
23251;DHT22;11794;49.730;10.088;2023-04-23T00:29:28;12.90;99.90
23251;DHT22;11794;49.730;10.088;2023-04-23T00:31:54;12.90;99.90
23251;DHT22;11794;49.730;10.088;2023-04-23T00:34:19;12.80;99.90
23251;DHT22;11794;49.730;10.088;2023-04-23T00:36:45;12.80;99.90
23251;DHT22;11794;49.730;10.088;2023-04-23T00:39:10;12.70;99.90
23251;DHT22;11794;49.730;10.088;2023-04-23T00:41:36;12.70;99.90
23251;DHT22;11794;49.730;10.088;2023-04-23T00:44:02;12.70;99.90
23251;DHT22;11794;49.730;10.088;2023-04-23T00:46:28;12.70;99.90
23251;DHT22;11794;49.730;10.088;2023-04-23T00:48:54;12.70;99.90
23251;DHT22;11794;49.730;10.088;2023-04-23T00:51:20;12.70;99.90
23251;DHT22;11794;49.730;10.088;2023-04-23T00:53:47;12.70;99.90
23251;DHT22;11794;49.730;10.088;2023-04-23T00:56:13;12.70;99.90
23251;DHT22;11794;49.730;10.088;2023-04-23T00:58:40;12.70;99.90
23251;DHT22;11794;49.730;10.088;2023-04-23T01:01:06;12.60;99.90
23251;DHT22;11794;49.730;10.088;2023-04-23T01:03:34;12.70;99.90
23251;DHT22;11794;49.730;10.088;2023-04-23T01:06:00;12.70;99.90
23251;DHT22;11794;49.730;10.088;2023-04-23T01:08:27;12.70;99.90
23251;DHT22;11794;49.730;10.088;2023-04-23T01:10:53;12.60;99.90
23251;DHT22;11794;49.730;10.088;2023-04-23T01:13:19;12.70;99.90
23251;DHT22;11794;49.730;10.088;2023-04-23T01:15:46;12.70;99.90
23251;DHT22;11794;49.730;10.088;2023-04-23T01:18:12;12.70;99.90
23251;DHT22;11794;49.730;10.088;2023-04-23T01:20:38;12.80;99.90
23251;DHT22;11794;49.730;10.088;2023-04-23T01:23:04;12.80;99.90
23251;DHT22;11794;49.730;10.088;2023-04-23T01:25:30;12.90;99.90
23251;DHT22;11794;49.730;10.088;2023-04-23T01:27:57;12.90;99.90
23251;DHT22;11794;49.730;10.088;2023-04-23T01:30:24;12.90;99.90
23251;DHT22;11794;49.730;10.088;2023-04-23T01:32:52;12.90;99.90
23251;DHT22;11794;49.730;10.088;2023-04-23T01:35:18;12.90;99.90
23251;DHT22;11794;49.730;10.088;2023-04-23T01:37:44;12.80;99.90
23251;DHT22;11794;49.730;10.088;2023-04-23T01:40:10;12.90;99.90
23251;DHT22;11794;49.730;10.088;2023-04-23T01:42:37;12.90;99.90
23251;DHT22;11794;49.730;10.088;2023-04-23T01:45:03;12.90;99.90
23251;DHT22;11794;49.730;10.088;2023-04-23T01:47:29;12.90;99.90
23251;DHT22;11794;49.730;10.088;2023-04-23T01:49:55;12.90;99.90
23251;DHT22;11794;49.730;10.088;2023-04-23T01:52:20;12.90;99.90
23251;DHT22;11794;49.730;10.088;2023-04-23T01:54:46;12.90;99.90
23251;DHT22;11794;49.730;10.088;2023-04-23T01:57:12;12.90;99.90
23251;DHT22;11794;49.730;10.088;2023-04-23T01:59:38;12.80;99.90
23251;DHT22;11794;49.730;10.088;2023-04-23T02:02:04;12.80;99.90
23251;DHT22;11794;49.730;10.088;2023-04-23T02:04:30;12.70;99.90
23251;DHT22;11794;49.730;10.088;2023-04-23T02:06:56;12.70;99.90
23251;DHT22;11794;49.730;10.088;2023-04-23T02:09:21;12.70;99.90
23251;DHT22;11794;49.730;10.088;2023-04-23T02:11:47;12.70;99.90
23251;DHT22;11794;49.730;10.088;2023-04-23T02:14:12;12.50;99.90
23251;DHT22;11794;49.730;10.088;2023-04-23T02:16:38;12.50;99.90
23251;DHT22;11794;49.730;10.088;2023-04-23T02:19:04;12.50;99.90
23251;DHT22;11794;49.730;10.088;2023-04-23T02:21:30;12.50;99.90
23251;DHT22;11794;49.730;10.088;2023-04-23T02:23:55;12.50;99.90
23251;DHT22;11794;49.730;10.088;2023-04-23T02:26:21;12.50;99.90
23251;DHT22;11794;49.730;10.088;2023-04-23T02:28:48;12.40;99.90
23251;DHT22;11794;49.730;10.088;2023-04-23T02:31:13;12.40;99.90
23251;DHT22;11794;49.730;10.088;2023-04-23T02:33:40;12.30;99.90
23251;DHT22;11794;49.730;10.088;2023-04-23T02:36:07;12.30;99.90
23251;DHT22;11794;49.730;10.088;2023-04-23T02:38:33;12.30;99.90
23251;DHT22;11794;49.730;10.088;2023-04-23T02:40:58;12.30;99.90
23251;DHT22;11794;49.730;10.088;2023-04-23T02:43:24;12.30;99.90
23251;DHT22;11794;49.730;10.088;2023-04-23T02:45:49;12.30;99.90
23251;DHT22;11794;49.730;10.088;2023-04-23T02:48:15;12.20;99.90
23251;DHT22;11794;49.730;10.088;2023-04-23T02:50:40;12.20;99.90
23251;DHT22;11794;49.730;10.088;2023-04-23T02:53:06;12.20;99.90
23251;DHT22;11794;49.730;10.088;2023-04-23T02:55:32;12.20;99.90
23251;DHT22;11794;49.730;10.088;2023-04-23T02:57:58;12.20;99.90
23251;DHT22;11794;49.730;10.088;2023-04-23T03:00:24;12.10;99.90
23251;DHT22;11794;49.730;10.088;2023-04-23T03:02:50;12.10;99.90
23251;DHT22;11794;49.730;10.088;2023-04-23T03:05:17;12.10;99.90
23251;DHT22;11794;49.730;10.088;2023-04-23T03:07:42;12.10;99.90
23251;DHT22;11794;49.730;10.088;2023-04-23T03:10:08;12.00;99.90
23251;DHT22;11794;49.730;10.088;2023-04-23T03:12:34;12.00;99.90
23251;DHT22;11794;49.730;10.088;2023-04-23T03:14:59;12.00;99.90
23251;DHT22;11794;49.730;10.088;2023-04-23T03:17:25;11.90;99.90
23251;DHT22;11794;49.730;10.088;2023-04-23T03:19:50;11.90;99.90
23251;DHT22;11794;49.730;10.088;2023-04-23T03:22:16;11.80;99.90
23251;DHT22;11794;49.730;10.088;2023-04-23T03:24:41;11.80;99.90
23251;DHT22;11794;49.730;10.088;2023-04-23T03:27:07;11.80;99.90
23251;DHT22;11794;49.730;10.088;2023-04-23T03:29:32;11.80;99.90
23251;DHT22;11794;49.730;10.088;2023-04-23T03:31:58;11.90;99.90
23251;DHT22;11794;49.730;10.088;2023-04-23T03:34:23;11.90;99.90
23251;DHT22;11794;49.730;10.088;2023-04-23T03:36:49;11.90;99.90
23251;DHT22;11794;49.730;10.088;2023-04-23T03:39:15;11.90;99.90
23251;DHT22;11794;49.730;10.088;2023-04-23T03:41:41;11.80;99.90
23251;DHT22;11794;49.730;10.088;2023-04-23T03:44:06;11.80;99.90
23251;DHT22;11794;49.730;10.088;2023-04-23T03:46:32;11.80;99.90
23251;DHT22;11794;49.730;10.088;2023-04-23T03:48:57;11.80;99.90
23251;DHT22;11794;49.730;10.088;2023-04-23T03:51:23;11.90;99.90
23251;DHT22;11794;49.730;10.088;2023-04-23T03:53:48;11.90;99.90
23251;DHT22;11794;49.730;10.088;2023-04-23T03:56:14;11.90;99.90
23251;DHT22;11794;49.730;10.088;2023-04-23T03:58:40;11.90;99.90
23251;DHT22;11794;49.730;10.088;2023-04-23T04:01:06;11.90;99.90
23251;DHT22;11794;49.730;10.088;2023-04-23T04:03:31;11.90;99.90
23251;DHT22;11794;49.730;10.088;2023-04-23T04:05:57;11.90;99.90
23251;DHT22;11794;49.730;10.088;2023-04-23T04:08:22;11.90;99.90
23251;DHT22;11794;49.730;10.088;2023-04-23T04:10:48;11.90;99.90
23251;DHT22;11794;49.730;10.088;2023-04-23T04:13:14;11.90;99.90
23251;DHT22;11794;49.730;10.088;2023-04-23T04:15:40;11.90;99.90
23251;DHT22;11794;49.730;10.088;2023-04-23T04:18:06;11.90;99.90
23251;DHT22;11794;49.730;10.088;2023-04-23T04:20:31;11.80;99.90
23251;DHT22;11794;49.730;10.088;2023-04-23T04:22:57;11.90;99.90
23251;DHT22;11794;49.730;10.088;2023-04-23T04:25:22;11.80;99.90
23251;DHT22;11794;49.730;10.088;2023-04-23T04:27:48;11.80;99.90
23251;DHT22;11794;49.730;10.088;2023-04-23T04:30:14;11.80;99.90
23251;DHT22;11794;49.730;10.088;2023-04-23T04:32:40;11.80;99.90
23251;DHT22;11794;49.730;10.088;2023-04-23T04:35:07;11.80;99.90
23251;DHT22;11794;49.730;10.088;2023-04-23T04:37:37;11.80;99.90
23251;DHT22;11794;49.730;10.088;2023-04-23T04:40:02;11.80;99.90
23251;DHT22;11794;49.730;10.088;2023-04-23T04:42:29;11.80;99.90
23251;DHT22;11794;49.730;10.088;2023-04-23T04:44:55;11.90;99.90
23251;DHT22;11794;49.730;10.088;2023-04-23T04:47:24;11.90;99.90
23251;DHT22;11794;49.730;10.088;2023-04-23T04:49:49;11.90;99.90
23251;DHT22;11794;49.730;10.088;2023-04-23T04:52:15;12.00;99.90
23251;DHT22;11794;49.730;10.088;2023-04-23T04:54:41;11.90;99.90
23251;DHT22;11794;49.730;10.088;2023-04-23T04:57:07;11.90;99.90
23251;DHT22;11794;49.730;10.088;2023-04-23T04:59:33;11.90;99.90
23251;DHT22;11794;49.730;10.088;2023-04-23T05:01:58;11.90;99.90
23251;DHT22;11794;49.730;10.088;2023-04-23T05:04:24;12.00;99.90
23251;DHT22;11794;49.730;10.088;2023-04-23T05:06:49;12.00;99.90
23251;DHT22;11794;49.730;10.088;2023-04-23T05:09:15;12.10;99.90
23251;DHT22;11794;49.730;10.088;2023-04-23T05:11:41;12.10;99.90
23251;DHT22;11794;49.730;10.088;2023-04-23T05:14:07;12.10;99.90
23251;DHT22;11794;49.730;10.088;2023-04-23T05:16:33;12.20;99.90
23251;DHT22;11794;49.730;10.088;2023-04-23T05:18:59;12.20;99.90
23251;DHT22;11794;49.730;10.088;2023-04-23T05:21:25;12.30;99.90
23251;DHT22;11794;49.730;10.088;2023-04-23T05:23:52;12.30;99.90
23251;DHT22;11794;49.730;10.088;2023-04-23T05:26:19;12.30;99.90
23251;DHT22;11794;49.730;10.088;2023-04-23T05:28:45;12.20;99.90
23251;DHT22;11794;49.730;10.088;2023-04-23T05:31:10;12.20;99.90
23251;DHT22;11794;49.730;10.088;2023-04-23T05:33:36;12.10;99.90
23251;DHT22;11794;49.730;10.088;2023-04-23T05:36:02;12.10;99.90
23251;DHT22;11794;49.730;10.088;2023-04-23T05:38:27;12.00;99.90
23251;DHT22;11794;49.730;10.088;2023-04-23T05:40:53;12.00;99.90
23251;DHT22;11794;49.730;10.088;2023-04-23T05:43:18;12.10;99.90
23251;DHT22;11794;49.730;10.088;2023-04-23T05:45:44;12.10;99.90
23251;DHT22;11794;49.730;10.088;2023-04-23T05:48:10;12.10;99.90
23251;DHT22;11794;49.730;10.088;2023-04-23T05:50:35;12.10;99.90
23251;DHT22;11794;49.730;10.088;2023-04-23T05:53:01;12.20;99.90
23251;DHT22;11794;49.730;10.088;2023-04-23T05:55:26;12.20;99.90
23251;DHT22;11794;49.730;10.088;2023-04-23T05:57:52;12.30;99.90
23251;DHT22;11794;49.730;10.088;2023-04-23T06:00:17;12.30;99.90
23251;DHT22;11794;49.730;10.088;2023-04-23T06:02:43;12.30;99.90
23251;DHT22;11794;49.730;10.088;2023-04-23T06:05:09;12.30;99.90
23251;DHT22;11794;49.730;10.088;2023-04-23T06:07:34;12.30;99.90
23251;DHT22;11794;49.730;10.088;2023-04-23T06:10:02;12.30;99.90
23251;DHT22;11794;49.730;10.088;2023-04-23T06:12:27;12.30;99.90
23251;DHT22;11794;49.730;10.088;2023-04-23T06:14:53;12.20;99.90
23251;DHT22;11794;49.730;10.088;2023-04-23T06:17:19;12.30;99.90
23251;DHT22;11794;49.730;10.088;2023-04-23T06:19:44;12.20;99.90
23251;DHT22;11794;49.730;10.088;2023-04-23T06:22:10;12.30;99.90
23251;DHT22;11794;49.730;10.088;2023-04-23T06:24:35;12.30;99.90
23251;DHT22;11794;49.730;10.088;2023-04-23T06:27:01;12.40;99.90
23251;DHT22;11794;49.730;10.088;2023-04-23T06:29:27;12.50;99.90
23251;DHT22;11794;49.730;10.088;2023-04-23T06:31:56;12.60;99.90
23251;DHT22;11794;49.730;10.088;2023-04-23T06:34:25;12.70;99.90
23251;DHT22;11794;49.730;10.088;2023-04-23T06:36:51;12.90;99.90
23251;DHT22;11794;49.730;10.088;2023-04-23T06:39:16;13.00;99.90
23251;DHT22;11794;49.730;10.088;2023-04-23T06:41:42;13.00;99.90
23251;DHT22;11794;49.730;10.088;2023-04-23T06:44:07;13.00;99.90
23251;DHT22;11794;49.730;10.088;2023-04-23T06:46:33;13.10;99.90
23251;DHT22;11794;49.730;10.088;2023-04-23T06:48:58;13.30;99.90
23251;DHT22;11794;49.730;10.088;2023-04-23T06:51:24;13.50;99.90
23251;DHT22;11794;49.730;10.088;2023-04-23T06:53:50;13.90;99.90
23251;DHT22;11794;49.730;10.088;2023-04-23T06:56:16;14.00;99.90
23251;DHT22;11794;49.730;10.088;2023-04-23T06:58:42;14.10;99.90
23251;DHT22;11794;49.730;10.088;2023-04-23T07:01:07;14.20;99.90
23251;DHT22;11794;49.730;10.088;2023-04-23T07:03:34;13.90;99.90
23251;DHT22;11794;49.730;10.088;2023-04-23T07:06:00;13.90;99.90
23251;DHT22;11794;49.730;10.088;2023-04-23T07:08:26;14.00;99.90
23251;DHT22;11794;49.730;10.088;2023-04-23T07:10:51;14.10;99.90
23251;DHT22;11794;49.730;10.088;2023-04-23T07:13:17;14.30;99.90
23251;DHT22;11794;49.730;10.088;2023-04-23T07:15:43;14.30;99.90
23251;DHT22;11794;49.730;10.088;2023-04-23T07:18:09;14.20;99.90
23251;DHT22;11794;49.730;10.088;2023-04-23T07:20:35;14.10;99.90
23251;DHT22;11794;49.730;10.088;2023-04-23T07:23:00;14.00;99.90
23251;DHT22;11794;49.730;10.088;2023-04-23T07:25:28;14.10;99.90
23251;DHT22;11794;49.730;10.088;2023-04-23T07:27:54;14.30;99.90
23251;DHT22;11794;49.730;10.088;2023-04-23T07:30:20;14.40;99.90
23251;DHT22;11794;49.730;10.088;2023-04-23T07:32:46;14.30;99.90
23251;DHT22;11794;49.730;10.088;2023-04-23T07:35:11;14.30;99.90
23251;DHT22;11794;49.730;10.088;2023-04-23T07:37:37;14.20;99.90
23251;DHT22;11794;49.730;10.088;2023-04-23T07:40:03;14.10;99.90
23251;DHT22;11794;49.730;10.088;2023-04-23T07:42:30;14.00;99.90
23251;DHT22;11794;49.730;10.088;2023-04-23T07:44:55;14.10;99.90
23251;DHT22;11794;49.730;10.088;2023-04-23T07:47:21;14.10;99.90
23251;DHT22;11794;49.730;10.088;2023-04-23T07:49:47;14.20;99.90
23251;DHT22;11794;49.730;10.088;2023-04-23T07:52:12;14.40;99.90
23251;DHT22;11794;49.730;10.088;2023-04-23T07:54:38;14.80;99.90
23251;DHT22;11794;49.730;10.088;2023-04-23T07:57:03;15.20;99.90
23251;DHT22;11794;49.730;10.088;2023-04-23T07:59:29;15.30;99.90
23251;DHT22;11794;49.730;10.088;2023-04-23T08:01:55;15.20;99.90
23251;DHT22;11794;49.730;10.088;2023-04-23T08:04:20;15.10;99.90
23251;DHT22;11794;49.730;10.088;2023-04-23T08:06:46;15.60;99.90
23251;DHT22;11794;49.730;10.088;2023-04-23T08:09:11;16.20;99.90
23251;DHT22;11794;49.730;10.088;2023-04-23T08:11:37;16.00;99.90
23251;DHT22;11794;49.730;10.088;2023-04-23T08:14:02;16.10;99.90
23251;DHT22;11794;49.730;10.088;2023-04-23T08:16:28;15.80;99.90
23251;DHT22;11794;49.730;10.088;2023-04-23T08:18:53;15.40;99.90
23251;DHT22;11794;49.730;10.088;2023-04-23T08:21:20;15.50;99.90
23251;DHT22;11794;49.730;10.088;2023-04-23T08:23:46;16.20;99.90
23251;DHT22;11794;49.730;10.088;2023-04-23T08:26:12;16.70;99.90
23251;DHT22;11794;49.730;10.088;2023-04-23T08:28:37;17.20;99.90
23251;DHT22;11794;49.730;10.088;2023-04-23T08:31:03;17.50;99.90
23251;DHT22;11794;49.730;10.088;2023-04-23T08:33:29;17.30;99.90
23251;DHT22;11794;49.730;10.088;2023-04-23T08:35:54;17.30;99.90
23251;DHT22;11794;49.730;10.088;2023-04-23T08:38:20;17.80;99.90
23251;DHT22;11794;49.730;10.088;2023-04-23T08:40:48;18.10;99.90
23251;DHT22;11794;49.730;10.088;2023-04-23T08:43:16;18.00;99.90
23251;DHT22;11794;49.730;10.088;2023-04-23T08:45:46;17.90;99.90
23251;DHT22;11794;49.730;10.088;2023-04-23T08:48:12;18.50;99.90
23251;DHT22;11794;49.730;10.088;2023-04-23T08:50:41;19.00;99.90
23251;DHT22;11794;49.730;10.088;2023-04-23T08:53:07;19.30;99.90
23251;DHT22;11794;49.730;10.088;2023-04-23T08:55:34;19.30;99.90
23251;DHT22;11794;49.730;10.088;2023-04-23T08:58:00;19.70;99.90
23251;DHT22;11794;49.730;10.088;2023-04-23T09:00:27;19.90;99.90
23251;DHT22;11794;49.730;10.088;2023-04-23T09:02:53;19.80;99.90
23251;DHT22;11794;49.730;10.088;2023-04-23T09:05:20;19.70;99.90
23251;DHT22;11794;49.730;10.088;2023-04-23T09:07:45;19.20;99.90
23251;DHT22;11794;49.730;10.088;2023-04-23T09:10:12;18.80;99.90
23251;DHT22;11794;49.730;10.088;2023-04-23T09:12:40;19.10;99.90
23251;DHT22;11794;49.730;10.088;2023-04-23T09:15:06;19.20;99.90
23251;DHT22;11794;49.730;10.088;2023-04-23T09:17:40;18.60;99.90
23251;DHT22;11794;49.730;10.088;2023-04-23T09:20:06;18.20;99.90
23251;DHT22;11794;49.730;10.088;2023-04-23T09:22:44;18.20;99.90
23251;DHT22;11794;49.730;10.088;2023-04-23T09:25:12;18.10;99.90
23251;DHT22;11794;49.730;10.088;2023-04-23T09:27:38;18.60;99.90
23251;DHT22;11794;49.730;10.088;2023-04-23T09:30:05;19.40;99.90
23251;DHT22;11794;49.730;10.088;2023-04-23T09:32:33;19.50;99.90
23251;DHT22;11794;49.730;10.088;2023-04-23T09:35:05;19.70;99.90
23251;DHT22;11794;49.730;10.088;2023-04-23T09:37:31;19.30;99.90
23251;DHT22;11794;49.730;10.088;2023-04-23T09:40:01;19.10;99.90
23251;DHT22;11794;49.730;10.088;2023-04-23T09:42:29;18.90;99.90
23251;DHT22;11794;49.730;10.088;2023-04-23T09:44:56;19.20;99.90
23251;DHT22;11794;49.730;10.088;2023-04-23T09:47:22;19.50;99.90
23251;DHT22;11794;49.730;10.088;2023-04-23T09:49:49;19.60;99.90
23251;DHT22;11794;49.730;10.088;2023-04-23T09:52:15;19.50;99.90
23251;DHT22;11794;49.730;10.088;2023-04-23T09:54:41;19.30;99.90
23251;DHT22;11794;49.730;10.088;2023-04-23T09:57:07;19.40;99.90
23251;DHT22;11794;49.730;10.088;2023-04-23T09:59:34;19.20;99.90
23251;DHT22;11794;49.730;10.088;2023-04-23T10:02:03;19.50;99.90
23251;DHT22;11794;49.730;10.088;2023-04-23T10:04:28;20.00;99.90
23251;DHT22;11794;49.730;10.088;2023-04-23T10:06:55;20.70;99.90
23251;DHT22;11794;49.730;10.088;2023-04-23T10:09:22;20.90;99.90
23251;DHT22;11794;49.730;10.088;2023-04-23T10:12:02;20.80;99.90
23251;DHT22;11794;49.730;10.088;2023-04-23T10:14:28;20.60;99.90
23251;DHT22;11794;49.730;10.088;2023-04-23T10:16:57;20.90;99.90
23251;DHT22;11794;49.730;10.088;2023-04-23T10:19:24;21.20;99.90
23251;DHT22;11794;49.730;10.088;2023-04-23T10:21:54;21.80;99.90
23251;DHT22;11794;49.730;10.088;2023-04-23T10:24:23;22.20;99.90
23251;DHT22;11794;49.730;10.088;2023-04-23T10:26:50;21.90;99.90
23251;DHT22;11794;49.730;10.088;2023-04-23T10:29:20;21.60;99.90
23251;DHT22;11794;49.730;10.088;2023-04-23T10:31:46;21.90;99.90
23251;DHT22;11794;49.730;10.088;2023-04-23T10:34:14;21.30;99.90
23251;DHT22;11794;49.730;10.088;2023-04-23T10:36:40;21.30;99.90
23251;DHT22;11794;49.730;10.088;2023-04-23T10:39:06;21.70;99.90
23251;DHT22;11794;49.730;10.088;2023-04-23T10:41:37;21.90;99.90
23251;DHT22;11794;49.730;10.088;2023-04-23T10:44:10;21.50;99.90
23251;DHT22;11794;49.730;10.088;2023-04-23T10:46:36;21.30;99.90
23251;DHT22;11794;49.730;10.088;2023-04-23T10:51:34;20.90;99.90
23251;DHT22;11794;49.730;10.088;2023-04-23T10:54:02;20.80;99.90
23251;DHT22;11794;49.730;10.088;2023-04-23T10:56:28;21.80;99.90
23251;DHT22;11794;49.730;10.088;2023-04-23T10:58:54;22.00;99.90
23251;DHT22;11794;49.730;10.088;2023-04-23T11:01:23;21.90;99.80
23251;DHT22;11794;49.730;10.088;2023-04-23T11:03:50;21.80;99.00
23251;DHT22;11794;49.730;10.088;2023-04-23T11:09:36;21.10;99.80
23251;DHT22;11794;49.730;10.088;2023-04-23T11:12:06;20.60;99.90
23251;DHT22;11794;49.730;10.088;2023-04-23T11:17:04;20.50;99.90
23251;DHT22;11794;49.730;10.088;2023-04-23T11:19:34;20.20;99.90
23251;DHT22;11794;49.730;10.088;2023-04-23T11:24:27;19.70;99.90
23251;DHT22;11794;49.730;10.088;2023-04-23T11:26:53;19.90;99.90
23251;DHT22;11794;49.730;10.088;2023-04-23T11:29:23;20.40;99.90
23251;DHT22;11794;49.730;10.088;2023-04-23T11:31:50;20.50;99.90
23251;DHT22;11794;49.730;10.088;2023-04-23T11:34:16;20.50;99.90
23251;DHT22;11794;49.730;10.088;2023-04-23T11:36:42;20.80;99.90
23251;DHT22;11794;49.730;10.088;2023-04-23T11:39:08;20.60;99.90
23251;DHT22;11794;49.730;10.088;2023-04-23T11:41:36;20.90;99.90
23251;DHT22;11794;49.730;10.088;2023-04-23T11:44:02;21.70;99.90
23251;DHT22;11794;49.730;10.088;2023-04-23T11:46:29;22.20;99.20
23251;DHT22;11794;49.730;10.088;2023-04-23T11:48:54;22.10;98.80
23251;DHT22;11794;49.730;10.088;2023-04-23T11:51:26;21.80;99.30
23251;DHT22;11794;49.730;10.088;2023-04-23T11:53:52;22.40;98.80
23251;DHT22;11794;49.730;10.088;2023-04-23T11:56:18;23.10;97.40
23251;DHT22;11794;49.730;10.088;2023-04-23T11:58:57;23.50;96.30
23251;DHT22;11794;49.730;10.088;2023-04-23T12:01:23;22.80;95.70
23251;DHT22;11794;49.730;10.088;2023-04-23T12:03:49;22.40;96.10
23251;DHT22;11794;49.730;10.088;2023-04-23T12:06:17;22.30;97.10
23251;DHT22;11794;49.730;10.088;2023-04-23T12:08:45;22.20;97.10
23251;DHT22;11794;49.730;10.088;2023-04-23T12:11:11;22.40;96.50
23251;DHT22;11794;49.730;10.088;2023-04-23T12:13:39;21.70;96.60
23251;DHT22;11794;49.730;10.088;2023-04-23T12:16:05;21.10;98.00
23251;DHT22;11794;49.730;10.088;2023-04-23T12:18:32;20.60;98.80
23251;DHT22;11794;49.730;10.088;2023-04-23T12:21:24;20.20;99.10
23251;DHT22;11794;49.730;10.088;2023-04-23T12:23:50;19.90;99.60
23251;DHT22;11794;49.730;10.088;2023-04-23T12:26:16;19.80;99.90
23251;DHT22;11794;49.730;10.088;2023-04-23T12:29:00;19.80;99.50
23251;DHT22;11794;49.730;10.088;2023-04-23T12:31:26;20.00;99.70
23251;DHT22;11794;49.730;10.088;2023-04-23T12:34:06;20.40;99.20
23251;DHT22;11794;49.730;10.088;2023-04-23T12:36:34;21.30;97.80
23251;DHT22;11794;49.730;10.088;2023-04-23T12:39:26;22.30;97.20
23251;DHT22;11794;49.730;10.088;2023-04-23T12:41:55;22.90;95.70
23251;DHT22;11794;49.730;10.088;2023-04-23T12:44:22;21.90;96.50
23251;DHT22;11794;49.730;10.088;2023-04-23T12:46:54;21.50;97.20
23251;DHT22;11794;49.730;10.088;2023-04-23T12:49:20;21.40;96.90
23251;DHT22;11794;49.730;10.088;2023-04-23T12:51:46;20.50;98.30
23251;DHT22;11794;49.730;10.088;2023-04-23T12:54:11;20.20;97.90
23251;DHT22;11794;49.730;10.088;2023-04-23T12:56:37;20.00;99.40
23251;DHT22;11794;49.730;10.088;2023-04-23T12:59:02;19.90;99.20
23251;DHT22;11794;49.730;10.088;2023-04-23T13:01:30;20.20;98.90
23251;DHT22;11794;49.730;10.088;2023-04-23T13:03:56;21.00;98.80
23251;DHT22;11794;49.730;10.088;2023-04-23T13:06:21;21.80;97.40
23251;DHT22;11794;49.730;10.088;2023-04-23T13:08:47;22.40;96.20
23251;DHT22;11794;49.730;10.088;2023-04-23T13:11:12;22.60;96.10
23251;DHT22;11794;49.730;10.088;2023-04-23T13:13:38;22.80;95.70
23251;DHT22;11794;49.730;10.088;2023-04-23T13:16:03;23.00;95.90
23251;DHT22;11794;49.730;10.088;2023-04-23T13:18:29;23.30;95.70
23251;DHT22;11794;49.730;10.088;2023-04-23T13:20:55;24.30;95.90
23251;DHT22;11794;49.730;10.088;2023-04-23T13:23:21;25.40;93.50
23251;DHT22;11794;49.730;10.088;2023-04-23T13:25:47;25.20;93.40
23251;DHT22;11794;49.730;10.088;2023-04-23T13:28:12;24.60;93.40
23251;DHT22;11794;49.730;10.088;2023-04-23T13:30:38;24.40;93.40
23251;DHT22;11794;49.730;10.088;2023-04-23T13:33:03;23.60;94.00
23251;DHT22;11794;49.730;10.088;2023-04-23T13:35:29;22.80;94.30
23251;DHT22;11794;49.730;10.088;2023-04-23T13:37:54;23.00;94.60
23251;DHT22;11794;49.730;10.088;2023-04-23T13:40:20;24.40;93.80
23251;DHT22;11794;49.730;10.088;2023-04-23T13:42:45;25.20;92.70
23251;DHT22;11794;49.730;10.088;2023-04-23T13:45:13;25.90;91.80
23251;DHT22;11794;49.730;10.088;2023-04-23T13:47:39;26.30;91.90
23251;DHT22;11794;49.730;10.088;2023-04-23T13:50:05;26.80;90.90
23251;DHT22;11794;49.730;10.088;2023-04-23T13:52:32;26.90;87.20
23251;DHT22;11794;49.730;10.088;2023-04-23T13:54:58;26.90;88.60
23251;DHT22;11794;49.730;10.088;2023-04-23T13:57:25;26.80;86.50
23251;DHT22;11794;49.730;10.088;2023-04-23T13:59:51;26.70;87.40
23251;DHT22;11794;49.730;10.088;2023-04-23T14:02:19;27.30;85.10
23251;DHT22;11794;49.730;10.088;2023-04-23T14:04:45;27.10;87.80
23251;DHT22;11794;49.730;10.088;2023-04-23T14:07:10;27.50;84.80
23251;DHT22;11794;49.730;10.088;2023-04-23T14:09:36;26.70;87.90
23251;DHT22;11794;49.730;10.088;2023-04-23T14:12:02;26.60;84.60
23251;DHT22;11794;49.730;10.088;2023-04-23T14:14:28;26.40;84.30
23251;DHT22;11794;49.730;10.088;2023-04-23T14:16:53;25.80;84.80
23251;DHT22;11794;49.730;10.088;2023-04-23T14:19:19;25.70;84.20
23251;DHT22;11794;49.730;10.088;2023-04-23T14:21:45;25.90;83.70
23251;DHT22;11794;49.730;10.088;2023-04-23T14:26:46;23.90;88.50
23251;DHT22;11794;49.730;10.088;2023-04-23T14:29:28;24.00;87.10
23251;DHT22;11794;49.730;10.088;2023-04-23T14:31:54;23.70;87.80
23251;DHT22;11794;49.730;10.088;2023-04-23T14:34:20;24.10;87.80
23251;DHT22;11794;49.730;10.088;2023-04-23T14:36:45;24.70;87.40
23251;DHT22;11794;49.730;10.088;2023-04-23T14:39:13;24.30;87.00
23251;DHT22;11794;49.730;10.088;2023-04-23T14:41:39;22.80;87.00
23251;DHT22;11794;49.730;10.088;2023-04-23T14:44:05;21.80;89.20
23251;DHT22;11794;49.730;10.088;2023-04-23T14:46:31;21.40;90.80
23251;DHT22;11794;49.730;10.088;2023-04-23T14:48:57;21.40;90.70
23251;DHT22;11794;49.730;10.088;2023-04-23T14:51:22;21.30;91.40
23251;DHT22;11794;49.730;10.088;2023-04-23T14:53:48;21.00;91.60
23251;DHT22;11794;49.730;10.088;2023-04-23T14:56:14;21.00;91.30
23251;DHT22;11794;49.730;10.088;2023-04-23T14:58:40;21.00;91.20
23251;DHT22;11794;49.730;10.088;2023-04-23T15:01:06;21.00;91.50
23251;DHT22;11794;49.730;10.088;2023-04-23T15:03:32;21.00;92.20
23251;DHT22;11794;49.730;10.088;2023-04-23T15:05:57;21.00;92.00
23251;DHT22;11794;49.730;10.088;2023-04-23T15:08:23;20.70;92.70
23251;DHT22;11794;49.730;10.088;2023-04-23T15:10:48;20.50;92.10
23251;DHT22;11794;49.730;10.088;2023-04-23T15:15:48;20.60;92.50
23251;DHT22;11794;49.730;10.088;2023-04-23T15:18:15;20.40;92.30
23251;DHT22;11794;49.730;10.088;2023-04-23T15:20:42;20.30;92.60
23251;DHT22;11794;49.730;10.088;2023-04-23T15:23:08;20.20;92.50
23251;DHT22;11794;49.730;10.088;2023-04-23T15:25:34;20.20;92.90